sensor_id;sensor_type;location;lat;lon;timestamp;P1;durP1;ratioP1;P2;durP2;ratioP2
35648;SDS011;21768;48.562;13.414;2023-10-08T00:01:08;5.78;;;2.38;;
35648;SDS011;21768;48.562;13.414;2023-10-08T00:03:39;6.25;;;2.63;;
35648;SDS011;21768;48.562;13.414;2023-10-08T00:06:06;5.82;;;2.80;;
35648;SDS011;21768;48.562;13.414;2023-10-08T00:08:32;5.30;;;2.20;;
35648;SDS011;21768;48.562;13.414;2023-10-08T00:10:58;5.28;;;2.70;;
35648;SDS011;21768;48.562;13.414;2023-10-08T00:13:31;7.00;;;2.90;;
35648;SDS011;21768;48.562;13.414;2023-10-08T00:15:56;6.50;;;2.72;;
35648;SDS011;21768;48.562;13.414;2023-10-08T00:18:22;7.00;;;2.60;;
35648;SDS011;21768;48.562;13.414;2023-10-08T00:20:48;5.10;;;2.20;;
35648;SDS011;21768;48.562;13.414;2023-10-08T00:23:32;7.63;;;2.53;;
35648;SDS011;21768;48.562;13.414;2023-10-08T00:26:00;8.50;;;2.72;;
35648;SDS011;21768;48.562;13.414;2023-10-08T00:28:29;6.32;;;2.72;;
35648;SDS011;21768;48.562;13.414;2023-10-08T00:30:56;5.78;;;2.53;;
35648;SDS011;21768;48.562;13.414;2023-10-08T00:33:23;5.38;;;2.53;;
35648;SDS011;21768;48.562;13.414;2023-10-08T00:35:49;5.25;;;2.50;;
35648;SDS011;21768;48.562;13.414;2023-10-08T00:38:14;7.82;;;2.70;;
35648;SDS011;21768;48.562;13.414;2023-10-08T00:40:41;6.68;;;2.60;;
35648;SDS011;21768;48.562;13.414;2023-10-08T00:43:29;6.28;;;2.83;;
35648;SDS011;21768;48.562;13.414;2023-10-08T00:46:03;7.93;;;2.38;;
35648;SDS011;21768;48.562;13.414;2023-10-08T00:48:31;7.45;;;2.42;;
35648;SDS011;21768;48.562;13.414;2023-10-08T00:51:04;5.85;;;2.17;;
35648;SDS011;21768;48.562;13.414;2023-10-08T00:53:52;5.45;;;2.38;;
35648;SDS011;21768;48.562;13.414;2023-10-08T00:56:18;5.72;;;2.55;;
35648;SDS011;21768;48.562;13.414;2023-10-08T00:58:44;5.13;;;2.42;;
35648;SDS011;21768;48.562;13.414;2023-10-08T01:01:18;7.22;;;2.75;;
35648;SDS011;21768;48.562;13.414;2023-10-08T01:03:45;7.63;;;3.00;;
35648;SDS011;21768;48.562;13.414;2023-10-08T01:06:14;6.75;;;2.58;;
35648;SDS011;21768;48.562;13.414;2023-10-08T01:08:44;8.68;;;2.40;;
35648;SDS011;21768;48.562;13.414;2023-10-08T01:11:23;9.65;;;2.80;;
35648;SDS011;21768;48.562;13.414;2023-10-08T01:14:07;4.47;;;2.50;;
35648;SDS011;21768;48.562;13.414;2023-10-08T01:16:33;8.98;;;2.30;;
35648;SDS011;21768;48.562;13.414;2023-10-08T01:19:01;3.97;;;2.05;;
35648;SDS011;21768;48.562;13.414;2023-10-08T01:21:30;4.82;;;2.20;;
35648;SDS011;21768;48.562;13.414;2023-10-08T01:24:04;5.68;;;2.45;;
35648;SDS011;21768;48.562;13.414;2023-10-08T01:26:35;6.50;;;2.42;;
35648;SDS011;21768;48.562;13.414;2023-10-08T01:29:04;7.57;;;2.50;;
35648;SDS011;21768;48.562;13.414;2023-10-08T01:31:34;8.23;;;2.50;;
35648;SDS011;21768;48.562;13.414;2023-10-08T01:34:01;5.18;;;2.58;;
35648;SDS011;21768;48.562;13.414;2023-10-08T01:36:29;8.10;;;2.65;;
35648;SDS011;21768;48.562;13.414;2023-10-08T01:38:56;6.40;;;2.60;;
35648;SDS011;21768;48.562;13.414;2023-10-08T01:41:22;5.03;;;2.45;;
35648;SDS011;21768;48.562;13.414;2023-10-08T01:43:54;6.30;;;2.53;;
35648;SDS011;21768;48.562;13.414;2023-10-08T01:46:20;3.83;;;1.90;;
35648;SDS011;21768;48.562;13.414;2023-10-08T01:48:47;11.45;;;2.50;;
35648;SDS011;21768;48.562;13.414;2023-10-08T01:51:14;8.63;;;2.25;;
35648;SDS011;21768;48.562;13.414;2023-10-08T01:53:50;6.97;;;2.33;;
35648;SDS011;21768;48.562;13.414;2023-10-08T01:56:20;6.15;;;1.92;;
35648;SDS011;21768;48.562;13.414;2023-10-08T01:58:46;7.15;;;2.75;;
35648;SDS011;21768;48.562;13.414;2023-10-08T02:01:11;10.80;;;2.45;;
35648;SDS011;21768;48.562;13.414;2023-10-08T02:03:38;4.75;;;2.22;;
35648;SDS011;21768;48.562;13.414;2023-10-08T02:06:04;6.03;;;2.25;;
35648;SDS011;21768;48.562;13.414;2023-10-08T02:08:31;7.90;;;2.58;;
35648;SDS011;21768;48.562;13.414;2023-10-08T02:10:57;5.80;;;2.58;;
35648;SDS011;21768;48.562;13.414;2023-10-08T02:13:22;7.82;;;2.30;;
35648;SDS011;21768;48.562;13.414;2023-10-08T02:15:51;8.10;;;2.80;;
35648;SDS011;21768;48.562;13.414;2023-10-08T02:18:17;7.35;;;2.75;;
35648;SDS011;21768;48.562;13.414;2023-10-08T02:20:43;7.05;;;2.30;;
35648;SDS011;21768;48.562;13.414;2023-10-08T02:23:09;5.38;;;2.20;;
35648;SDS011;21768;48.562;13.414;2023-10-08T02:25:38;7.28;;;2.42;;
35648;SDS011;21768;48.562;13.414;2023-10-08T02:28:05;6.53;;;2.60;;
35648;SDS011;21768;48.562;13.414;2023-10-08T02:30:35;4.22;;;2.10;;
35648;SDS011;21768;48.562;13.414;2023-10-08T02:33:02;4.93;;;2.45;;
35648;SDS011;21768;48.562;13.414;2023-10-08T02:35:27;6.28;;;2.17;;
35648;SDS011;21768;48.562;13.414;2023-10-08T02:37:53;5.90;;;2.40;;
35648;SDS011;21768;48.562;13.414;2023-10-08T02:40:20;6.25;;;2.47;;
35648;SDS011;21768;48.562;13.414;2023-10-08T02:42:52;4.55;;;2.20;;
35648;SDS011;21768;48.562;13.414;2023-10-08T02:45:31;8.52;;;3.05;;
35648;SDS011;21768;48.562;13.414;2023-10-08T02:47:56;6.43;;;2.60;;
35648;SDS011;21768;48.562;13.414;2023-10-08T02:50:22;5.53;;;2.20;;
35648;SDS011;21768;48.562;13.414;2023-10-08T02:52:48;6.47;;;2.53;;
35648;SDS011;21768;48.562;13.414;2023-10-08T02:55:15;5.65;;;2.35;;
35648;SDS011;21768;48.562;13.414;2023-10-08T02:57:50;5.00;;;2.47;;
35648;SDS011;21768;48.562;13.414;2023-10-08T03:00:15;6.68;;;2.72;;
35648;SDS011;21768;48.562;13.414;2023-10-08T03:02:44;4.80;;;2.30;;
35648;SDS011;21768;48.562;13.414;2023-10-08T03:05:11;12.00;;;2.10;;
35648;SDS011;21768;48.562;13.414;2023-10-08T03:07:41;8.13;;;2.38;;
35648;SDS011;21768;48.562;13.414;2023-10-08T03:10:07;4.65;;;2.13;;
35648;SDS011;21768;48.562;13.414;2023-10-08T03:12:42;3.85;;;2.22;;
35648;SDS011;21768;48.562;13.414;2023-10-08T03:15:08;5.28;;;2.25;;
35648;SDS011;21768;48.562;13.414;2023-10-08T03:17:52;6.57;;;2.30;;
35648;SDS011;21768;48.562;13.414;2023-10-08T03:20:18;5.18;;;2.40;;
35648;SDS011;21768;48.562;13.414;2023-10-08T03:23:04;5.05;;;2.25;;
35648;SDS011;21768;48.562;13.414;2023-10-08T03:25:38;6.07;;;2.20;;
35648;SDS011;21768;48.562;13.414;2023-10-08T03:28:11;6.13;;;2.67;;
35648;SDS011;21768;48.562;13.414;2023-10-08T03:30:38;5.05;;;2.30;;
35648;SDS011;21768;48.562;13.414;2023-10-08T03:33:13;5.65;;;2.30;;
35648;SDS011;21768;48.562;13.414;2023-10-08T03:35:47;5.93;;;2.38;;
35648;SDS011;21768;48.562;13.414;2023-10-08T03:38:14;6.82;;;2.63;;
35648;SDS011;21768;48.562;13.414;2023-10-08T03:41:06;5.30;;;2.17;;
35648;SDS011;21768;48.562;13.414;2023-10-08T03:43:34;6.18;;;2.38;;
35648;SDS011;21768;48.562;13.414;2023-10-08T03:46:07;6.47;;;2.40;;
35648;SDS011;21768;48.562;13.414;2023-10-08T03:48:40;9.30;;;2.88;;
35648;SDS011;21768;48.562;13.414;2023-10-08T03:51:08;6.28;;;2.25;;
35648;SDS011;21768;48.562;13.414;2023-10-08T03:53:37;7.90;;;2.40;;
35648;SDS011;21768;48.562;13.414;2023-10-08T03:56:24;6.13;;;2.17;;
35648;SDS011;21768;48.562;13.414;2023-10-08T03:58:50;7.45;;;2.00;;
35648;SDS011;21768;48.562;13.414;2023-10-08T04:01:19;3.95;;;1.98;;
35648;SDS011;21768;48.562;13.414;2023-10-08T04:03:45;4.75;;;2.10;;
35648;SDS011;21768;48.562;13.414;2023-10-08T04:06:20;5.97;;;2.05;;
35648;SDS011;21768;48.562;13.414;2023-10-08T04:08:55;5.65;;;1.90;;
35648;SDS011;21768;48.562;13.414;2023-10-08T04:11:36;7.40;;;2.47;;
35648;SDS011;21768;48.562;13.414;2023-10-08T04:14:17;5.28;;;2.10;;
35648;SDS011;21768;48.562;13.414;2023-10-08T04:16:46;4.55;;;1.90;;
35648;SDS011;21768;48.562;13.414;2023-10-08T04:19:16;4.47;;;2.00;;
35648;SDS011;21768;48.562;13.414;2023-10-08T04:21:43;4.60;;;1.90;;
35648;SDS011;21768;48.562;13.414;2023-10-08T04:24:09;7.03;;;2.28;;
35648;SDS011;21768;48.562;13.414;2023-10-08T04:26:36;4.68;;;2.03;;
35648;SDS011;21768;48.562;13.414;2023-10-08T04:29:05;5.35;;;2.17;;
35648;SDS011;21768;48.562;13.414;2023-10-08T04:31:32;3.95;;;1.98;;
35648;SDS011;21768;48.562;13.414;2023-10-08T04:34:02;6.55;;;2.30;;
35648;SDS011;21768;48.562;13.414;2023-10-08T04:36:35;4.68;;;2.00;;
35648;SDS011;21768;48.562;13.414;2023-10-08T04:39:03;6.07;;;2.15;;
35648;SDS011;21768;48.562;13.414;2023-10-08T04:41:41;4.63;;;2.27;;
35648;SDS011;21768;48.562;13.414;2023-10-08T04:44:11;6.03;;;2.65;;
35648;SDS011;21768;48.562;13.414;2023-10-08T04:46:41;6.18;;;2.22;;
35648;SDS011;21768;48.562;13.414;2023-10-08T04:49:16;5.68;;;2.58;;
35648;SDS011;21768;48.562;13.414;2023-10-08T04:51:51;4.65;;;2.55;;
35648;SDS011;21768;48.562;13.414;2023-10-08T04:54:22;6.43;;;2.55;;
35648;SDS011;21768;48.562;13.414;2023-10-08T04:56:55;5.30;;;2.10;;
35648;SDS011;21768;48.562;13.414;2023-10-08T04:59:25;8.75;;;2.20;;
35648;SDS011;21768;48.562;13.414;2023-10-08T05:01:57;5.85;;;2.42;;
35648;SDS011;21768;48.562;13.414;2023-10-08T05:04:47;4.93;;;2.13;;
35648;SDS011;21768;48.562;13.414;2023-10-08T05:07:17;4.75;;;2.15;;
35648;SDS011;21768;48.562;13.414;2023-10-08T05:09:47;5.35;;;2.42;;
35648;SDS011;21768;48.562;13.414;2023-10-08T05:12:28;4.90;;;2.25;;
35648;SDS011;21768;48.562;13.414;2023-10-08T05:15:10;5.28;;;2.08;;
35648;SDS011;21768;48.562;13.414;2023-10-08T05:17:39;6.03;;;2.53;;
35648;SDS011;21768;48.562;13.414;2023-10-08T05:20:17;6.38;;;2.20;;
35648;SDS011;21768;48.562;13.414;2023-10-08T05:23:10;4.00;;;2.05;;
35648;SDS011;21768;48.562;13.414;2023-10-08T05:25:55;5.95;;;2.40;;
35648;SDS011;21768;48.562;13.414;2023-10-08T05:28:31;5.90;;;2.88;;
35648;SDS011;21768;48.562;13.414;2023-10-08T05:31:10;6.22;;;2.63;;
35648;SDS011;21768;48.562;13.414;2023-10-08T05:33:47;6.05;;;2.22;;
35648;SDS011;21768;48.562;13.414;2023-10-08T05:36:15;7.05;;;2.50;;
35648;SDS011;21768;48.562;13.414;2023-10-08T05:38:52;4.85;;;2.30;;
35648;SDS011;21768;48.562;13.414;2023-10-08T05:41:44;4.63;;;2.35;;
35648;SDS011;21768;48.562;13.414;2023-10-08T05:44:28;6.43;;;2.30;;
35648;SDS011;21768;48.562;13.414;2023-10-08T05:47:04;4.80;;;2.17;;
35648;SDS011;21768;48.562;13.414;2023-10-08T05:49:50;5.00;;;2.17;;
35648;SDS011;21768;48.562;13.414;2023-10-08T05:52:47;5.28;;;2.47;;
35648;SDS011;21768;48.562;13.414;2023-10-08T05:55:22;12.02;;;2.70;;
35648;SDS011;21768;48.562;13.414;2023-10-08T05:57:54;4.82;;;2.10;;
35648;SDS011;21768;48.562;13.414;2023-10-08T06:00:41;6.93;;;2.53;;
35648;SDS011;21768;48.562;13.414;2023-10-08T06:03:31;6.15;;;2.47;;
35648;SDS011;21768;48.562;13.414;2023-10-08T06:06:04;6.85;;;2.30;;
35648;SDS011;21768;48.562;13.414;2023-10-08T06:08:37;5.20;;;2.17;;
35648;SDS011;21768;48.562;13.414;2023-10-08T06:11:33;5.53;;;2.50;;
35648;SDS011;21768;48.562;13.414;2023-10-08T06:14:31;6.15;;;2.08;;
35648;SDS011;21768;48.562;13.414;2023-10-08T06:17:15;7.47;;;2.55;;
35648;SDS011;21768;48.562;13.414;2023-10-08T06:19:59;4.93;;;2.30;;
35648;SDS011;21768;48.562;13.414;2023-10-08T06:22:26;5.80;;;2.55;;
35648;SDS011;21768;48.562;13.414;2023-10-08T06:24:53;7.20;;;2.67;;
35648;SDS011;21768;48.562;13.414;2023-10-08T06:27:38;39.80;;;13.70;;
35648;SDS011;21768;48.562;13.414;2023-10-08T06:30:03;21.83;;;7.30;;
35648;SDS011;21768;48.562;13.414;2023-10-08T06:32:30;12.15;;;4.53;;
35648;SDS011;21768;48.562;13.414;2023-10-08T06:34:55;8.93;;;4.20;;
35648;SDS011;21768;48.562;13.414;2023-10-08T06:37:21;7.32;;;2.92;;
35648;SDS011;21768;48.562;13.414;2023-10-08T06:39:46;9.88;;;3.53;;
35648;SDS011;21768;48.562;13.414;2023-10-08T06:42:12;7.38;;;2.50;;
35648;SDS011;21768;48.562;13.414;2023-10-08T06:44:40;4.70;;;2.58;;
35648;SDS011;21768;48.562;13.414;2023-10-08T06:47:08;5.80;;;2.53;;
35648;SDS011;21768;48.562;13.414;2023-10-08T06:49:34;5.53;;;3.10;;
35648;SDS011;21768;48.562;13.414;2023-10-08T06:52:01;5.28;;;3.35;;
35648;SDS011;21768;48.562;13.414;2023-10-08T06:54:27;17.17;;;8.85;;
35648;SDS011;21768;48.562;13.414;2023-10-08T06:56:55;73.65;;;28.83;;
35648;SDS011;21768;48.562;13.414;2023-10-08T06:59:21;63.58;;;28.40;;
35648;SDS011;21768;48.562;13.414;2023-10-08T07:01:50;44.78;;;19.45;;
35648;SDS011;21768;48.562;13.414;2023-10-08T07:04:16;13.23;;;4.78;;
35648;SDS011;21768;48.562;13.414;2023-10-08T07:06:44;7.50;;;3.38;;
35648;SDS011;21768;48.562;13.414;2023-10-08T07:09:11;6.05;;;3.20;;
35648;SDS011;21768;48.562;13.414;2023-10-08T07:12:07;12.50;;;5.60;;
35648;SDS011;21768;48.562;13.414;2023-10-08T07:14:39;12.63;;;3.55;;
35648;SDS011;21768;48.562;13.414;2023-10-08T07:17:06;6.32;;;3.03;;
35648;SDS011;21768;48.562;13.414;2023-10-08T07:19:33;9.57;;;3.22;;
35648;SDS011;21768;48.562;13.414;2023-10-08T07:22:07;7.88;;;4.35;;
35648;SDS011;21768;48.562;13.414;2023-10-08T07:24:53;16.20;;;5.15;;
35648;SDS011;21768;48.562;13.414;2023-10-08T07:27:19;9.43;;;3.53;;
35648;SDS011;21768;48.562;13.414;2023-10-08T07:29:54;9.98;;;3.58;;
35648;SDS011;21768;48.562;13.414;2023-10-08T07:32:20;7.32;;;3.42;;
35648;SDS011;21768;48.562;13.414;2023-10-08T07:34:46;6.47;;;3.05;;
35648;SDS011;21768;48.562;13.414;2023-10-08T07:37:12;9.75;;;3.72;;
35648;SDS011;21768;48.562;13.414;2023-10-08T07:39:39;14.45;;;4.40;;
35648;SDS011;21768;48.562;13.414;2023-10-08T07:42:11;23.23;;;9.40;;
35648;SDS011;21768;48.562;13.414;2023-10-08T07:44:37;12.85;;;5.10;;
35648;SDS011;21768;48.562;13.414;2023-10-08T07:47:04;9.52;;;3.92;;
35648;SDS011;21768;48.562;13.414;2023-10-08T07:49:35;14.45;;;3.85;;
35648;SDS011;21768;48.562;13.414;2023-10-08T07:52:01;7.30;;;3.35;;
35648;SDS011;21768;48.562;13.414;2023-10-08T07:54:26;7.00;;;3.00;;
35648;SDS011;21768;48.562;13.414;2023-10-08T07:56:59;5.20;;;2.75;;
35648;SDS011;21768;48.562;13.414;2023-10-08T07:59:37;6.47;;;2.95;;
35648;SDS011;21768;48.562;13.414;2023-10-08T08:02:05;5.72;;;2.53;;
35648;SDS011;21768;48.562;13.414;2023-10-08T08:04:35;8.05;;;2.95;;
35648;SDS011;21768;48.562;13.414;2023-10-08T08:07:01;7.85;;;3.13;;
35648;SDS011;21768;48.562;13.414;2023-10-08T08:09:29;6.63;;;3.13;;
35648;SDS011;21768;48.562;13.414;2023-10-08T08:11:55;7.15;;;4.18;;
35648;SDS011;21768;48.562;13.414;2023-10-08T08:14:22;9.02;;;3.53;;
35648;SDS011;21768;48.562;13.414;2023-10-08T08:16:50;14.27;;;6.28;;
35648;SDS011;21768;48.562;13.414;2023-10-08T08:19:16;15.07;;;5.57;;
35648;SDS011;21768;48.562;13.414;2023-10-08T08:21:45;10.65;;;4.55;;
35648;SDS011;21768;48.562;13.414;2023-10-08T08:24:13;8.65;;;4.38;;
35648;SDS011;21768;48.562;13.414;2023-10-08T08:26:53;8.48;;;3.60;;
35648;SDS011;21768;48.562;13.414;2023-10-08T08:29:37;5.97;;;3.08;;
35648;SDS011;21768;48.562;13.414;2023-10-08T08:32:13;6.47;;;3.50;;
35648;SDS011;21768;48.562;13.414;2023-10-08T08:34:43;6.07;;;2.90;;
35648;SDS011;21768;48.562;13.414;2023-10-08T08:37:11;6.65;;;3.20;;
35648;SDS011;21768;48.562;13.414;2023-10-08T08:39:37;7.53;;;2.90;;
35648;SDS011;21768;48.562;13.414;2023-10-08T08:42:03;12.88;;;3.22;;
35648;SDS011;21768;48.562;13.414;2023-10-08T08:44:30;7.20;;;2.83;;
35648;SDS011;21768;48.562;13.414;2023-10-08T08:47:00;7.95;;;2.97;;
35648;SDS011;21768;48.562;13.414;2023-10-08T08:49:29;7.57;;;2.65;;
35648;SDS011;21768;48.562;13.414;2023-10-08T08:51:59;7.53;;;3.15;;
35648;SDS011;21768;48.562;13.414;2023-10-08T08:54:26;7.32;;;2.42;;
35648;SDS011;21768;48.562;13.414;2023-10-08T08:56:56;6.63;;;2.63;;
35648;SDS011;21768;48.562;13.414;2023-10-08T08:59:30;6.43;;;2.58;;
35648;SDS011;21768;48.562;13.414;2023-10-08T09:01:56;6.10;;;2.95;;
35648;SDS011;21768;48.562;13.414;2023-10-08T09:04:30;11.82;;;2.83;;
35648;SDS011;21768;48.562;13.414;2023-10-08T09:07:01;6.45;;;3.00;;
35648;SDS011;21768;48.562;13.414;2023-10-08T09:09:33;5.88;;;2.75;;
35648;SDS011;21768;48.562;13.414;2023-10-08T09:12:00;6.65;;;3.13;;
35648;SDS011;21768;48.562;13.414;2023-10-08T09:14:27;7.72;;;3.38;;
35648;SDS011;21768;48.562;13.414;2023-10-08T09:16:57;6.88;;;2.90;;
35648;SDS011;21768;48.562;13.414;2023-10-08T09:19:24;8.85;;;3.10;;
35648;SDS011;21768;48.562;13.414;2023-10-08T09:22:07;6.25;;;2.42;;
35648;SDS011;21768;48.562;13.414;2023-10-08T09:24:37;6.95;;;2.58;;
35648;SDS011;21768;48.562;13.414;2023-10-08T09:27:04;8.52;;;2.53;;
35648;SDS011;21768;48.562;13.414;2023-10-08T09:29:29;6.22;;;2.40;;
35648;SDS011;21768;48.562;13.414;2023-10-08T09:31:56;6.85;;;2.40;;
35648;SDS011;21768;48.562;13.414;2023-10-08T09:34:29;5.82;;;2.53;;
35648;SDS011;21768;48.562;13.414;2023-10-08T09:36:56;6.05;;;2.85;;
35648;SDS011;21768;48.562;13.414;2023-10-08T09:39:22;6.85;;;2.88;;
35648;SDS011;21768;48.562;13.414;2023-10-08T09:41:55;7.53;;;2.47;;
35648;SDS011;21768;48.562;13.414;2023-10-08T09:44:22;7.65;;;3.13;;
35648;SDS011;21768;48.562;13.414;2023-10-08T09:46:52;8.77;;;3.70;;
35648;SDS011;21768;48.562;13.414;2023-10-08T09:49:36;6.38;;;2.60;;
35648;SDS011;21768;48.562;13.414;2023-10-08T09:52:03;8.00;;;3.05;;
35648;SDS011;21768;48.562;13.414;2023-10-08T09:54:35;10.27;;;2.65;;
35648;SDS011;21768;48.562;13.414;2023-10-08T09:57:06;4.90;;;2.33;;
35648;SDS011;21768;48.562;13.414;2023-10-08T09:59:33;5.85;;;3.00;;
35648;SDS011;21768;48.562;13.414;2023-10-08T10:01:59;6.22;;;2.97;;
35648;SDS011;21768;48.562;13.414;2023-10-08T10:04:29;9.52;;;2.72;;
35648;SDS011;21768;48.562;13.414;2023-10-08T10:07:07;6.72;;;2.78;;
35648;SDS011;21768;48.562;13.414;2023-10-08T10:09:37;4.80;;;2.35;;
35648;SDS011;21768;48.562;13.414;2023-10-08T10:12:03;7.85;;;2.65;;
35648;SDS011;21768;48.562;13.414;2023-10-08T10:15:07;4.55;;;1.98;;
35648;SDS011;21768;48.562;13.414;2023-10-08T10:17:26;4.65;;;2.50;;
35648;SDS011;21768;48.562;13.414;2023-10-08T10:19:56;5.32;;;2.30;;
35648;SDS011;21768;48.562;13.414;2023-10-08T10:22:28;6.50;;;2.40;;
35648;SDS011;21768;48.562;13.414;2023-10-08T10:24:59;6.25;;;2.35;;
35648;SDS011;21768;48.562;13.414;2023-10-08T10:27:29;5.43;;;1.98;;
35648;SDS011;21768;48.562;13.414;2023-10-08T10:30:04;5.30;;;2.40;;
35648;SDS011;21768;48.562;13.414;2023-10-08T10:32:33;10.00;;;4.55;;
35648;SDS011;21768;48.562;13.414;2023-10-08T10:35:02;22.30;;;8.63;;
35648;SDS011;21768;48.562;13.414;2023-10-08T10:37:32;11.38;;;4.05;;
35648;SDS011;21768;48.562;13.414;2023-10-08T10:40:06;5.00;;;2.13;;
35648;SDS011;21768;48.562;13.414;2023-10-08T10:42:37;10.25;;;4.78;;
35648;SDS011;21768;48.562;13.414;2023-10-08T10:45:14;10.75;;;3.97;;
35648;SDS011;21768;48.562;13.414;2023-10-08T10:48:03;19.92;;;6.63;;
35648;SDS011;21768;48.562;13.414;2023-10-08T10:50:45;10.52;;;4.20;;
35648;SDS011;21768;48.562;13.414;2023-10-08T10:53:36;15.85;;;4.30;;
35648;SDS011;21768;48.562;13.414;2023-10-08T10:56:13;9.02;;;2.85;;
35648;SDS011;21768;48.562;13.414;2023-10-08T10:58:49;7.97;;;2.90;;
35648;SDS011;21768;48.562;13.414;2023-10-08T11:01:22;7.25;;;3.28;;
35648;SDS011;21768;48.562;13.414;2023-10-08T11:03:50;8.07;;;2.97;;
35648;SDS011;21768;48.562;13.414;2023-10-08T11:06:16;6.60;;;2.03;;
35648;SDS011;21768;48.562;13.414;2023-10-08T11:08:48;4.93;;;2.40;;
35648;SDS011;21768;48.562;13.414;2023-10-08T11:11:16;9.18;;;2.45;;
35648;SDS011;21768;48.562;13.414;2023-10-08T11:13:42;10.73;;;3.85;;
35648;SDS011;21768;48.562;13.414;2023-10-08T11:16:12;9.52;;;2.85;;
35648;SDS011;21768;48.562;13.414;2023-10-08T11:18:44;7.72;;;2.88;;
35648;SDS011;21768;48.562;13.414;2023-10-08T11:21:15;10.50;;;4.72;;
35648;SDS011;21768;48.562;13.414;2023-10-08T11:23:42;7.65;;;3.50;;
35648;SDS011;21768;48.562;13.414;2023-10-08T11:26:11;10.30;;;3.08;;
35648;SDS011;21768;48.562;13.414;2023-10-08T11:28:40;15.88;;;7.88;;
35648;SDS011;21768;48.562;13.414;2023-10-08T11:31:12;10.13;;;4.80;;
35648;SDS011;21768;48.562;13.414;2023-10-08T11:33:40;9.27;;;3.17;;
35648;SDS011;21768;48.562;13.414;2023-10-08T11:36:07;9.02;;;2.90;;
35648;SDS011;21768;48.562;13.414;2023-10-08T11:38:39;5.43;;;2.70;;
35648;SDS011;21768;48.562;13.414;2023-10-08T11:41:11;10.90;;;3.08;;
35648;SDS011;21768;48.562;13.414;2023-10-08T11:43:50;45.40;;;18.33;;
35648;SDS011;21768;48.562;13.414;2023-10-08T11:46:21;6.68;;;3.03;;
35648;SDS011;21768;48.562;13.414;2023-10-08T11:49:05;8.23;;;2.53;;
35648;SDS011;21768;48.562;13.414;2023-10-08T11:51:32;9.43;;;2.80;;
35648;SDS011;21768;48.562;13.414;2023-10-08T11:53:59;7.35;;;3.08;;
35648;SDS011;21768;48.562;13.414;2023-10-08T11:56:25;6.35;;;2.72;;
35648;SDS011;21768;48.562;13.414;2023-10-08T11:58:52;5.85;;;2.50;;
35648;SDS011;21768;48.562;13.414;2023-10-08T12:01:21;7.93;;;3.65;;
35648;SDS011;21768;48.562;13.414;2023-10-08T12:03:47;6.88;;;3.35;;
35648;SDS011;21768;48.562;13.414;2023-10-08T12:06:15;12.98;;;7.35;;
35648;SDS011;21768;48.562;13.414;2023-10-08T12:08:43;7.03;;;3.45;;
35648;SDS011;21768;48.562;13.414;2023-10-08T12:11:12;10.13;;;5.45;;
35648;SDS011;21768;48.562;13.414;2023-10-08T12:13:41;9.00;;;4.05;;
35648;SDS011;21768;48.562;13.414;2023-10-08T12:16:13;8.30;;;2.67;;
35648;SDS011;21768;48.562;13.414;2023-10-08T12:18:47;7.43;;;2.70;;
35648;SDS011;21768;48.562;13.414;2023-10-08T12:21:23;7.18;;;3.60;;
35648;SDS011;21768;48.562;13.414;2023-10-08T12:23:54;5.00;;;2.17;;
35648;SDS011;21768;48.562;13.414;2023-10-08T12:26:20;7.47;;;3.40;;
35648;SDS011;21768;48.562;13.414;2023-10-08T12:28:46;5.43;;;2.67;;
35648;SDS011;21768;48.562;13.414;2023-10-08T12:31:15;7.85;;;2.10;;
35648;SDS011;21768;48.562;13.414;2023-10-08T12:33:41;13.77;;;4.53;;
35648;SDS011;21768;48.562;13.414;2023-10-08T12:36:08;7.07;;;2.47;;
35648;SDS011;21768;48.562;13.414;2023-10-08T12:38:38;5.22;;;2.38;;
35648;SDS011;21768;48.562;13.414;2023-10-08T12:41:06;8.05;;;2.40;;
35648;SDS011;21768;48.562;13.414;2023-10-08T12:43:38;9.82;;;1.98;;
35648;SDS011;21768;48.562;13.414;2023-10-08T12:46:04;3.38;;;2.10;;
35648;SDS011;21768;48.562;13.414;2023-10-08T12:48:35;5.78;;;2.25;;
35648;SDS011;21768;48.562;13.414;2023-10-08T12:51:01;6.65;;;2.45;;
35648;SDS011;21768;48.562;13.414;2023-10-08T12:53:30;5.97;;;3.53;;
35648;SDS011;21768;48.562;13.414;2023-10-08T12:55:59;6.75;;;2.97;;
35648;SDS011;21768;48.562;13.414;2023-10-08T12:58:30;15.75;;;6.65;;
35648;SDS011;21768;48.562;13.414;2023-10-08T13:00:59;4.78;;;2.30;;
35648;SDS011;21768;48.562;13.414;2023-10-08T13:03:28;4.63;;;2.53;;
35648;SDS011;21768;48.562;13.414;2023-10-08T13:05:58;6.18;;;2.70;;
35648;SDS011;21768;48.562;13.414;2023-10-08T13:08:31;5.53;;;2.72;;
35648;SDS011;21768;48.562;13.414;2023-10-08T13:10:58;7.40;;;2.35;;
35648;SDS011;21768;48.562;13.414;2023-10-08T13:13:26;7.43;;;2.45;;
35648;SDS011;21768;48.562;13.414;2023-10-08T13:15:52;5.55;;;2.30;;
35648;SDS011;21768;48.562;13.414;2023-10-08T13:18:21;6.70;;;2.20;;
35648;SDS011;21768;48.562;13.414;2023-10-08T13:20:52;7.43;;;2.38;;
35648;SDS011;21768;48.562;13.414;2023-10-08T13:23:18;8.18;;;2.35;;
35648;SDS011;21768;48.562;13.414;2023-10-08T13:25:46;7.40;;;2.55;;
35648;SDS011;21768;48.562;13.414;2023-10-08T13:28:18;4.75;;;2.40;;
35648;SDS011;21768;48.562;13.414;2023-10-08T13:30:46;5.97;;;2.35;;
35648;SDS011;21768;48.562;13.414;2023-10-08T13:33:11;10.70;;;2.72;;
35648;SDS011;21768;48.562;13.414;2023-10-08T13:35:37;4.32;;;2.03;;
35648;SDS011;21768;48.562;13.414;2023-10-08T13:38:02;6.68;;;2.30;;
35648;SDS011;21768;48.562;13.414;2023-10-08T13:40:34;13.68;;;5.82;;
35648;SDS011;21768;48.562;13.414;2023-10-08T13:43:04;10.77;;;3.08;;
35648;SDS011;21768;48.562;13.414;2023-10-08T13:45:30;7.28;;;2.67;;
35648;SDS011;21768;48.562;13.414;2023-10-08T13:47:58;4.05;;;2.10;;
35648;SDS011;21768;48.562;13.414;2023-10-08T13:50:26;6.95;;;2.78;;
35648;SDS011;21768;48.562;13.414;2023-10-08T13:52:55;7.40;;;2.58;;
35648;SDS011;21768;48.562;13.414;2023-10-08T13:55:20;4.88;;;2.28;;
35648;SDS011;21768;48.562;13.414;2023-10-08T13:57:50;7.20;;;2.65;;
35648;SDS011;21768;48.562;13.414;2023-10-08T14:00:19;6.05;;;2.83;;
35648;SDS011;21768;48.562;13.414;2023-10-08T14:02:51;6.78;;;3.20;;
35648;SDS011;21768;48.562;13.414;2023-10-08T14:05:18;6.55;;;2.63;;
35648;SDS011;21768;48.562;13.414;2023-10-08T14:07:50;7.45;;;2.40;;
35648;SDS011;21768;48.562;13.414;2023-10-08T14:10:16;10.80;;;3.20;;
35648;SDS011;21768;48.562;13.414;2023-10-08T14:12:46;8.80;;;3.10;;
35648;SDS011;21768;48.562;13.414;2023-10-08T14:15:14;7.38;;;3.33;;
35648;SDS011;21768;48.562;13.414;2023-10-08T14:17:41;4.93;;;2.53;;
35648;SDS011;21768;48.562;13.414;2023-10-08T14:20:09;4.88;;;2.42;;
35648;SDS011;21768;48.562;13.414;2023-10-08T14:22:38;5.68;;;2.53;;
35648;SDS011;21768;48.562;13.414;2023-10-08T14:25:06;4.57;;;2.42;;
35648;SDS011;21768;48.562;13.414;2023-10-08T14:27:37;7.22;;;2.40;;
35648;SDS011;21768;48.562;13.414;2023-10-08T14:30:08;4.85;;;2.22;;
35648;SDS011;21768;48.562;13.414;2023-10-08T14:32:40;7.75;;;2.33;;
35648;SDS011;21768;48.562;13.414;2023-10-08T14:35:11;5.47;;;2.28;;
35648;SDS011;21768;48.562;13.414;2023-10-08T14:37:58;5.25;;;2.30;;
35648;SDS011;21768;48.562;13.414;2023-10-08T14:40:43;7.82;;;2.50;;
35648;SDS011;21768;48.562;13.414;2023-10-08T14:43:27;6.18;;;2.53;;
35648;SDS011;21768;48.562;13.414;2023-10-08T14:45:56;6.35;;;2.65;;
35648;SDS011;21768;48.562;13.414;2023-10-08T14:48:22;5.00;;;2.50;;
35648;SDS011;21768;48.562;13.414;2023-10-08T14:50:48;8.45;;;2.97;;
35648;SDS011;21768;48.562;13.414;2023-10-08T14:53:14;10.23;;;2.67;;
35648;SDS011;21768;48.562;13.414;2023-10-08T14:55:40;20.00;;;9.98;;